createdAt,value
2023-02-11T00:01:09.987Z,93747.94
2023-02-11T00:03:55.853Z,93735.22
2023-02-11T00:06:41.813Z,93742.50
2023-02-11T00:09:29.349Z,93743.56
2023-02-11T00:12:17.003Z,93742.72
2023-02-11T00:15:02.859Z,93743.75
2023-02-11T00:17:48.824Z,93739.31
2023-02-11T00:20:34.727Z,93742.38
2023-02-11T00:23:20.720Z,93738.84
2023-02-11T00:26:06.580Z,93737.91
2023-02-11T00:28:52.477Z,93741.63
2023-02-11T00:31:38.421Z,93739.78
2023-02-11T00:34:24.667Z,93735.41
2023-02-11T00:37:10.616Z,93731.25
2023-02-11T00:39:56.374Z,93739.38
2023-02-11T00:42:42.268Z,93737.78
2023-02-11T00:45:28.179Z,93733.78
2023-02-11T00:48:14.054Z,93732.50
2023-02-11T00:51:00.106Z,93728.72
2023-02-11T00:53:46.050Z,93717.78
2023-02-11T00:56:31.990Z,93711.13
2023-02-11T00:59:18.108Z,93713.72
2023-02-11T01:02:03.918Z,93711.78
2023-02-11T01:04:49.978Z,93710.22
2023-02-11T01:07:36.353Z,93706.41
2023-02-11T01:10:22.182Z,93706.41
2023-02-11T01:13:08.079Z,93708.63
2023-02-11T01:15:54.117Z,93696.22
2023-02-11T01:18:40.404Z,93703.31
2023-02-11T01:21:26.145Z,93697.13
2023-02-11T01:24:11.979Z,93706.41
2023-02-11T01:26:57.912Z,93707.56
2023-02-11T01:29:43.804Z,93705.44
2023-02-11T01:32:29.684Z,93703.47
2023-02-11T01:35:15.560Z,93710.25
2023-02-11T01:38:01.438Z,93706.97
2023-02-11T01:40:47.302Z,93707.59
2023-02-11T01:43:33.225Z,93707.53
2023-02-11T01:46:19.073Z,93708.28
2023-02-11T01:49:05.326Z,93709.84
2023-02-11T01:51:51.553Z,93703.38
2023-02-11T01:54:37.312Z,93699.59
2023-02-11T01:57:23.167Z,93698.88
2023-02-11T02:00:09.051Z,93700.84
2023-02-11T02:02:54.944Z,93692.44
2023-02-11T02:05:40.807Z,93685.31
2023-02-11T02:08:26.695Z,93685.31
2023-02-11T02:11:12.676Z,93685.88
2023-02-11T02:13:58.631Z,93683.53
2023-02-11T02:16:44.449Z,93678.47
2023-02-11T02:19:30.462Z,93670.56
2023-02-11T02:22:16.211Z,93671.91
2023-02-11T02:25:02.209Z,93662.66
2023-02-11T02:27:48.222Z,93672.63
2023-02-11T02:30:34.192Z,93674.53
2023-02-11T02:33:23.329Z,93671.63
2023-02-11T02:36:09.617Z,93665.97
2023-02-11T02:38:55.450Z,93666.81
2023-02-11T02:41:41.373Z,93652.44
2023-02-11T02:44:27.359Z,93653.06
2023-02-11T02:47:13.409Z,93654.97
2023-02-11T02:49:59.403Z,93658.75
2023-02-11T02:52:47.295Z,93646.78
2023-02-11T02:55:33.164Z,93641.09
2023-02-11T02:58:19.266Z,93644.75
2023-02-11T03:01:05.038Z,93647.25
2023-02-11T03:03:50.893Z,93639.88
2023-02-11T03:06:36.863Z,93626.03
2023-02-11T03:09:22.653Z,93635.03
2023-02-11T03:12:08.497Z,93638.59
2023-02-11T03:14:54.352Z,93629.19
2023-02-11T03:17:40.254Z,93632.16
2023-02-11T03:20:26.234Z,93628.19
2023-02-11T03:23:12.103Z,93636.88
2023-02-11T03:25:57.971Z,93628.25
2023-02-11T03:28:43.877Z,93623.09
2023-02-11T03:31:29.855Z,93612.34
2023-02-11T03:34:16.127Z,93605.03
2023-02-11T03:37:01.959Z,93612.47
2023-02-11T03:39:47.820Z,93608.09
2023-02-11T03:42:33.769Z,93613.81
2023-02-11T03:45:19.529Z,93617.41
2023-02-11T03:48:05.405Z,93607.50
2023-02-11T03:50:51.494Z,93605.06
2023-02-11T03:53:37.405Z,93601.31
2023-02-11T03:56:23.343Z,93603.94
2023-02-11T03:59:09.309Z,93592.28
2023-02-11T04:01:55.209Z,93590.22
2023-02-11T04:04:41.107Z,93587.88
2023-02-11T04:07:26.822Z,93589.16
2023-02-11T04:10:12.779Z,93590.19
2023-02-11T04:13:18.932Z,93597.94
2023-02-11T04:16:04.876Z,93599.03
2023-02-11T04:18:50.831Z,93598.97
2023-02-11T04:21:36.756Z,93596.19
2023-02-11T04:24:22.622Z,93596.84
2023-02-11T04:27:08.714Z,93587.72
2023-02-11T04:29:54.685Z,93597.50
2023-02-11T04:32:40.534Z,93596.25
2023-02-11T04:35:26.542Z,93604.97
2023-02-11T04:38:12.379Z,93604.50
2023-02-11T04:40:58.419Z,93604.47
2023-02-11T04:43:44.362Z,93608.78
2023-02-11T04:46:30.268Z,93606.16
2023-02-11T04:49:16.277Z,93600.56
2023-02-11T04:52:04.252Z,93601.00
2023-02-11T04:54:50.086Z,93595.81
2023-02-11T04:57:36.147Z,93589.72
2023-02-11T05:00:22.049Z,93589.38
2023-02-11T05:03:07.970Z,93590.25
2023-02-11T05:05:53.911Z,93594.88
2023-02-11T05:08:39.645Z,93596.78
2023-02-11T05:11:25.689Z,93589.00
2023-02-11T05:14:11.532Z,93590.84
2023-02-11T05:16:57.472Z,93583.91
2023-02-11T05:19:43.728Z,93581.19
2023-02-11T05:22:29.610Z,93581.88
2023-02-11T05:25:15.482Z,93573.28
2023-02-11T05:28:01.356Z,93568.72
2023-02-11T05:30:47.204Z,93564.97
2023-02-11T05:33:33.192Z,93559.72
2023-02-11T05:36:19.277Z,93556.06
2023-02-11T05:39:05.067Z,93560.06
2023-02-11T05:41:51.066Z,93564.69
2023-02-11T05:44:37.017Z,93550.84
2023-02-11T05:47:23.318Z,93562.69
2023-02-11T05:50:09.279Z,93571.44
2023-02-11T05:52:55.094Z,93563.53
2023-02-11T05:55:41.422Z,93569.56
2023-02-11T05:58:27.485Z,93565.56
2023-02-11T06:01:13.275Z,93569.66
2023-02-11T06:03:59.268Z,93550.72
2023-02-11T06:06:45.290Z,93564.78
2023-02-11T06:09:31.124Z,93567.84
2023-02-11T06:12:17.026Z,93558.81
2023-02-11T06:15:02.879Z,93563.81
2023-02-11T06:17:48.814Z,93555.25
2023-02-11T06:20:34.719Z,93562.75
2023-02-11T06:23:20.551Z,93566.44
2023-02-11T06:26:06.530Z,93570.91
2023-02-11T06:28:52.457Z,93579.38
2023-02-11T06:31:38.436Z,93580.47
2023-02-11T06:34:24.757Z,93576.44
2023-02-11T06:37:10.521Z,93572.34
2023-02-11T06:39:56.440Z,93569.50
2023-02-11T06:42:42.374Z,93580.84
2023-02-11T06:45:28.182Z,93576.38
2023-02-11T06:48:14.067Z,93581.41
2023-02-11T06:50:59.920Z,93591.63
2023-02-11T06:53:47.924Z,93585.59
2023-02-11T06:56:33.760Z,93587.72
2023-02-11T06:59:19.676Z,93575.59
2023-02-11T07:02:05.762Z,93573.47
2023-02-11T07:04:51.766Z,93583.84
2023-02-11T07:07:37.689Z,93588.13
2023-02-11T07:10:23.698Z,93601.06
2023-02-11T07:13:09.656Z,93608.56
2023-02-11T07:15:55.649Z,93608.00
2023-02-11T07:18:41.801Z,93605.47
2023-02-11T07:21:27.616Z,93617.50
2023-02-11T07:24:13.637Z,93620.59
2023-02-11T07:26:59.636Z,93618.00
2023-02-11T07:29:45.425Z,93623.38
2023-02-11T07:32:31.467Z,93613.44
2023-02-11T07:35:17.400Z,93616.06
2023-02-11T07:38:03.335Z,93614.56
2023-02-11T07:40:49.241Z,93617.59
2023-02-11T07:43:35.270Z,93620.25
2023-02-11T07:46:21.388Z,93617.69
2023-02-11T07:49:07.664Z,93619.84
2023-02-11T07:51:53.510Z,93612.31
2023-02-11T07:54:39.475Z,93626.28
2023-02-11T07:57:25.354Z,93617.50
2023-02-11T08:00:11.313Z,93609.31
2023-02-11T08:02:59.251Z,93620.22
2023-02-11T08:05:45.102Z,93622.56
2023-02-11T08:08:31.000Z,93621.50
2023-02-11T08:11:16.988Z,93618.09
2023-02-11T08:14:02.958Z,93624.81
2023-02-11T08:16:49.003Z,93629.19
2023-02-11T08:19:35.322Z,93623.22
2023-02-11T08:22:21.235Z,93629.44
2023-02-11T08:25:07.198Z,93642.91
2023-02-11T08:27:53.158Z,93643.78
2023-02-11T08:30:39.051Z,93645.28
2023-02-11T08:33:26.934Z,93649.44
2023-02-11T08:36:12.888Z,93653.16
2023-02-11T08:39:12.141Z,93648.50
2023-02-11T08:42:03.886Z,93643.81
2023-02-11T08:44:49.998Z,93646.91
2023-02-11T08:47:35.850Z,93651.03
2023-02-11T08:50:21.756Z,93654.19
2023-02-11T08:53:07.580Z,93667.16
2023-02-11T08:55:53.648Z,93663.28
2023-02-11T08:58:39.706Z,93664.78
2023-02-11T09:01:25.701Z,93665.53
2023-02-11T09:04:11.644Z,93664.09
2023-02-11T09:06:57.564Z,93668.56
2023-02-11T09:09:43.453Z,93680.13
2023-02-11T09:12:29.330Z,93674.94
2023-02-11T09:15:15.139Z,93689.97
2023-02-11T09:18:00.919Z,93689.94
2023-02-11T09:20:46.842Z,93701.34
2023-02-11T09:23:32.798Z,93698.78
2023-02-11T09:26:18.664Z,93698.25
2023-02-11T09:29:04.602Z,93688.09
2023-02-11T09:31:50.596Z,93687.44
2023-02-11T09:34:36.820Z,93690.91
2023-02-11T09:37:22.647Z,93678.66
2023-02-11T09:40:08.617Z,93683.88
2023-02-11T09:42:55.304Z,93688.44
2023-02-11T09:45:41.949Z,93690.69
2023-02-11T09:48:27.780Z,93687.41
2023-02-11T09:51:13.635Z,93696.91
2023-02-11T09:54:01.289Z,93700.53
2023-02-11T09:56:48.258Z,93705.75
2023-02-11T09:59:34.622Z,93704.06
2023-02-11T10:02:20.543Z,93704.41
2023-02-11T10:05:06.448Z,93703.72
2023-02-11T10:07:52.269Z,93706.34
2023-02-11T10:10:38.106Z,93707.34
2023-02-11T10:13:24.073Z,93703.72
2023-02-11T10:16:09.846Z,93698.81
2023-02-11T10:18:55.754Z,93700.34
2023-02-11T10:21:41.649Z,93699.84
2023-02-11T10:24:27.488Z,93695.59
2023-02-11T10:27:13.358Z,93687.88
2023-02-11T10:29:59.266Z,93690.28
2023-02-11T11:51:28.200Z,93632.41
2023-02-11T11:54:14.219Z,93624.09
2023-02-11T11:57:00.222Z,93634.94
2023-02-11T11:59:46.083Z,93630.06
2023-02-11T12:02:31.850Z,93614.22
2023-02-11T12:05:17.710Z,93611.13
2023-02-11T12:08:03.754Z,93613.50
2023-02-11T12:10:49.989Z,93614.53
2023-02-11T12:13:35.961Z,93603.47
2023-02-11T12:16:22.060Z,93606.22
2023-02-11T12:19:07.991Z,93615.38
2023-02-11T12:21:53.937Z,93604.19
2023-02-11T12:24:41.872Z,93600.09
2023-02-11T12:27:27.801Z,93601.56
2023-02-11T12:30:13.583Z,93597.50
2023-02-11T12:32:59.614Z,93598.69
2023-02-11T12:35:45.414Z,93602.03
2023-02-11T12:38:31.307Z,93593.94
2023-02-11T12:41:17.332Z,93585.53
2023-02-11T12:44:03.177Z,93576.34
2023-02-11T12:46:49.046Z,93578.38
2023-02-11T12:49:34.848Z,93569.75
2023-02-11T12:52:20.684Z,93560.84
2023-02-11T12:55:06.536Z,93556.78
2023-02-11T12:57:52.378Z,93550.31
2023-02-11T13:00:38.241Z,93544.44
2023-02-11T13:03:24.138Z,93536.16
2023-02-11T13:06:09.941Z,93529.81
2023-02-11T13:08:55.756Z,93535.97
2023-02-11T13:11:41.602Z,93538.97
2023-02-11T13:14:27.425Z,93536.81
2023-02-11T13:17:13.298Z,93535.81
2023-02-11T13:19:59.256Z,93533.84
2023-02-11T13:22:45.082Z,93541.56
2023-02-11T13:25:30.838Z,93540.91
2023-02-11T13:28:16.902Z,93543.47
2023-02-11T13:31:04.902Z,93540.28
2023-02-11T13:33:53.190Z,93547.97
2023-02-11T13:36:38.904Z,93545.78
2023-02-11T13:39:24.812Z,93544.16
2023-02-11T13:42:10.733Z,93546.19
2023-02-11T13:44:56.491Z,93538.63
2023-02-11T13:47:42.363Z,93541.97
2023-02-11T13:50:28.170Z,93535.00
2023-02-11T13:53:16.033Z,93536.75
2023-02-11T13:56:02.163Z,93533.81
2023-02-11T13:58:47.888Z,93531.34
2023-02-11T14:01:33.851Z,93529.34
2023-02-11T14:04:19.806Z,93520.91
2023-02-11T14:07:05.671Z,93522.81
2023-02-11T14:09:51.610Z,93519.50
2023-02-11T14:12:37.512Z,93533.66
2023-02-11T14:15:23.510Z,93531.66
2023-02-11T14:18:09.391Z,93526.66
2023-02-11T14:20:55.184Z,93530.88
2023-02-11T14:23:41.146Z,93534.63
2023-02-11T14:26:27.030Z,93540.69
2023-02-11T14:29:12.769Z,93539.91
2023-02-11T14:31:58.672Z,93532.41
2023-02-11T14:34:44.911Z,93532.72
2023-02-11T14:37:30.726Z,93528.63
2023-02-11T14:40:16.702Z,93525.66
2023-02-11T14:43:02.592Z,93539.81
2023-02-11T14:45:48.588Z,93525.13
2023-02-11T14:48:34.390Z,93527.97
2023-02-11T14:51:20.323Z,93511.72
2023-02-11T14:54:06.298Z,93502.63
2023-02-11T14:56:52.123Z,93512.53
2023-02-11T14:59:38.144Z,93510.53
2023-02-11T15:02:24.200Z,93515.59
2023-02-11T15:05:10.181Z,93517.03
2023-02-11T15:07:56.133Z,93508.13
2023-02-11T15:10:41.851Z,93515.94
2023-02-11T15:13:27.833Z,93517.19
2023-02-11T15:16:18.230Z,93521.72
2023-02-11T15:19:04.322Z,93510.34
2023-02-11T15:21:50.423Z,93512.44
2023-02-11T15:24:36.332Z,93511.59
2023-02-11T15:27:22.068Z,93513.41
2023-02-11T15:30:07.966Z,93512.63
2023-02-11T15:32:54.041Z,93506.72
2023-02-11T15:35:40.128Z,93505.75
2023-02-11T15:38:26.003Z,93515.78
2023-02-11T15:41:11.975Z,93509.16
2023-02-11T15:43:57.757Z,93511.25
2023-02-11T15:46:43.751Z,93508.69
2023-02-11T15:49:29.605Z,93515.16
2023-02-11T15:52:15.493Z,93501.25
2023-02-11T15:55:01.647Z,93513.13
2023-02-11T15:57:47.446Z,93511.31
2023-02-11T16:00:33.369Z,93502.66
2023-02-11T16:03:19.930Z,93497.34
2023-02-11T16:06:05.852Z,93498.09
2023-02-11T16:08:51.848Z,93489.91
2023-02-11T16:11:37.686Z,93488.34
2023-02-11T16:14:23.606Z,93497.47
2023-02-11T16:17:09.483Z,93508.78
2023-02-11T16:19:55.484Z,93500.34
2023-02-11T16:22:41.338Z,93513.91
2023-02-11T16:25:27.003Z,93517.81
2023-02-11T16:28:12.835Z,93514.72
2023-02-11T16:31:01.533Z,93510.88
2023-02-11T16:33:48.311Z,93517.25
2023-02-11T16:36:34.124Z,93518.56
2023-02-11T16:39:21.066Z,93527.56
2023-02-11T16:42:07.620Z,93525.16
2023-02-11T16:44:53.918Z,93518.88
2023-02-11T16:47:39.810Z,93522.94
2023-02-11T16:50:25.651Z,93524.63
2023-02-11T16:53:11.497Z,93516.16
2023-02-11T16:55:57.584Z,93514.56
2023-02-11T16:58:43.462Z,93524.75
2023-02-11T17:01:29.641Z,93520.19
2023-02-11T17:04:15.901Z,93517.41
2023-02-11T17:07:01.732Z,93525.72
2023-02-11T17:09:47.623Z,93525.53
2023-02-11T17:12:33.510Z,93522.63
2023-02-11T17:15:19.445Z,93524.84
2023-02-11T17:18:05.443Z,93533.06
2023-02-11T17:20:51.156Z,93533.09
2023-02-11T17:23:36.980Z,93541.69
2023-02-11T17:26:22.818Z,93536.06
2023-02-11T17:29:08.654Z,93536.47
2023-02-11T17:31:54.678Z,93534.75
2023-02-11T17:34:40.901Z,93544.69
2023-02-11T17:37:26.778Z,93552.28
2023-02-11T17:40:12.720Z,93564.03
2023-02-11T17:42:58.594Z,93566.91
2023-02-11T17:45:44.542Z,93580.13
2023-02-11T17:48:30.504Z,93578.88
2023-02-11T17:51:16.442Z,93575.03
2023-02-11T17:54:02.366Z,93582.53
2023-02-11T17:56:50.331Z,93580.69
2023-02-11T17:59:36.749Z,93576.47
2023-02-11T18:02:22.669Z,93579.81
2023-02-11T18:05:10.403Z,93579.13
2023-02-11T18:07:56.335Z,93578.03
2023-02-11T18:10:42.160Z,93576.63
2023-02-11T18:13:27.989Z,93576.78
2023-02-11T18:16:13.882Z,93573.97
2023-02-11T18:18:59.688Z,93586.72
2023-02-11T18:21:45.611Z,93583.91
2023-02-11T18:24:31.603Z,93587.72
2023-02-11T18:27:17.455Z,93587.19
2023-02-11T18:30:03.391Z,93593.66
2023-02-11T18:32:49.297Z,93593.34
2023-02-11T18:35:35.071Z,93589.75
2023-02-11T18:38:21.156Z,93594.47
2023-02-11T18:41:07.222Z,93604.63
2023-02-11T18:43:53.119Z,93594.75
2023-02-11T18:46:39.077Z,93598.72
2023-02-11T18:49:24.990Z,93601.19
2023-02-11T18:52:11.010Z,93602.09
2023-02-11T18:54:57.042Z,93603.75
2023-02-11T18:57:42.818Z,93608.41
2023-02-11T19:00:28.681Z,93606.75
2023-02-11T19:03:14.508Z,93599.19
2023-02-11T19:06:00.456Z,93612.22
2023-02-11T19:08:46.271Z,93615.53
2023-02-11T19:11:32.217Z,93611.97
2023-02-11T19:14:18.211Z,93614.06
2023-02-11T19:17:04.217Z,93610.38
2023-02-11T19:19:50.116Z,93607.75
2023-02-11T19:22:38.058Z,93612.97
2023-02-11T19:25:24.029Z,93608.06
2023-02-11T19:28:09.849Z,93607.53
2023-02-11T19:30:55.874Z,93611.19
2023-02-11T19:33:42.183Z,93608.84
2023-02-11T19:36:28.067Z,93607.28
2023-02-11T19:39:14.040Z,93605.97
2023-02-11T19:42:00.011Z,93614.22
2023-02-11T19:44:45.904Z,93610.00
2023-02-11T19:47:31.822Z,93608.81
2023-02-11T19:50:17.741Z,93603.00
2023-02-11T19:53:03.696Z,93603.66
2023-02-11T19:55:50.035Z,93607.00
2023-02-11T19:58:36.151Z,93611.53
2023-02-11T20:01:22.254Z,93601.31
2023-02-11T20:04:08.184Z,93609.22
2023-02-11T20:06:54.162Z,93607.91
2023-02-11T20:09:40.043Z,93609.41
2023-02-11T20:12:25.987Z,93604.47
2023-02-11T20:15:12.022Z,93603.38
2023-02-11T20:17:57.697Z,93604.16
2023-02-11T20:20:43.510Z,93614.25
2023-02-11T20:23:29.255Z,93614.72
2023-02-11T20:26:15.047Z,93609.31
2023-02-11T20:29:01.074Z,93602.59
2023-02-11T20:31:47.067Z,93597.75
2023-02-11T20:34:33.424Z,93595.59
2023-02-11T20:37:19.442Z,93603.28
2023-02-11T20:40:05.188Z,93599.13
2023-02-11T20:42:51.158Z,93607.72
2023-02-11T20:45:37.032Z,93614.16
2023-02-11T20:48:23.855Z,93608.47
2023-02-11T20:51:09.742Z,93614.81
2023-02-11T20:53:55.696Z,93611.19
2023-02-11T20:56:41.558Z,93608.47
2023-02-11T20:59:27.429Z,93606.91
2023-02-11T21:02:13.262Z,93607.47
2023-02-11T21:04:59.291Z,93601.75
2023-02-11T21:07:45.299Z,93606.94
2023-02-11T21:10:31.249Z,93608.78
2023-02-11T21:13:17.367Z,93604.88
2023-02-11T21:16:03.349Z,93598.53
2023-02-11T21:18:49.291Z,93603.34
2023-02-11T21:21:35.341Z,93608.00
2023-02-11T21:24:21.121Z,93612.13
2023-02-11T21:27:06.945Z,93610.50
2023-02-11T21:29:54.516Z,93612.03
2023-02-11T21:32:40.747Z,93604.63
2023-02-11T21:35:26.629Z,93612.16
2023-02-11T21:38:12.616Z,93604.28
2023-02-11T21:40:58.429Z,93603.50
2023-02-11T21:43:44.379Z,93604.31
2023-02-11T21:46:30.277Z,93601.00
2023-02-11T21:49:16.149Z,93600.75
2023-02-11T21:52:02.061Z,93601.28
2023-02-11T21:54:47.862Z,93606.47
2023-02-11T21:57:33.764Z,93609.81
2023-02-11T22:00:19.629Z,93603.53
2023-02-11T22:03:05.514Z,93606.41
2023-02-11T22:05:51.346Z,93603.31
2023-02-11T22:08:37.066Z,93604.91
2023-02-11T22:11:23.021Z,93618.19
2023-02-11T22:14:08.875Z,93614.81
2023-02-11T22:16:54.692Z,93615.84
2023-02-11T22:19:40.637Z,93617.69
2023-02-11T22:22:26.377Z,93621.81
2023-02-11T22:25:12.289Z,93615.53
2023-02-11T22:27:58.172Z,93612.63
2023-02-11T22:30:44.111Z,93612.13
2023-02-11T22:33:29.989Z,93617.63
2023-02-11T22:36:15.843Z,93617.09
2023-02-11T22:39:01.843Z,93609.59
2023-02-11T22:41:47.753Z,93620.22
2023-02-11T22:44:33.595Z,93610.50
2023-02-11T22:47:19.406Z,93614.84
2023-02-11T22:50:05.237Z,93616.63
2023-02-11T22:52:51.001Z,93613.19
2023-02-11T22:55:37.026Z,93617.78
2023-02-11T22:58:22.904Z,93611.06
2023-02-11T23:01:08.724Z,93605.97
2023-02-11T23:03:54.516Z,93602.22
2023-02-11T23:06:40.406Z,93608.22
2023-02-11T23:09:26.302Z,93606.63
2023-02-11T23:12:12.334Z,93601.13
2023-02-11T23:14:58.235Z,93606.09
2023-02-11T23:17:44.145Z,93595.47
2023-02-11T23:20:30.087Z,93588.19
2023-02-11T23:23:15.911Z,93598.53
2023-02-11T23:26:02.030Z,93599.31
2023-02-11T23:28:47.903Z,93594.25
2023-02-11T23:31:34.196Z,93598.81
2023-02-11T23:34:20.505Z,93599.38
2023-02-11T23:37:06.375Z,93594.81
2023-02-11T23:39:54.259Z,93587.97
2023-02-11T23:42:40.155Z,93586.38
2023-02-11T23:45:26.085Z,93582.75
2023-02-11T23:48:12.056Z,93576.19
2023-02-11T23:50:57.889Z,93579.03
2023-02-11T23:54:27.182Z,93586.78
2023-02-11T23:57:13.112Z,93578.94
2023-02-11T23:59:58.825Z,93578.50
